createdAt,value
2022-08-30T00:00:36.469Z,7.95
2022-08-30T00:03:09.068Z,8.38
2022-08-30T00:05:43.372Z,8.00
2022-08-30T00:08:14.226Z,8.48
2022-08-30T00:10:45.104Z,8.02
2022-08-30T00:13:16.606Z,8.65
2022-08-30T00:15:47.742Z,9.07
2022-08-30T00:18:18.870Z,7.93
2022-08-30T00:20:53.178Z,7.95
2022-08-30T00:23:23.934Z,8.43
2022-08-30T00:25:54.110Z,7.43
2022-08-30T00:28:25.136Z,6.75
2022-08-30T00:30:55.803Z,8.02
2022-08-30T00:33:26.641Z,6.97
2022-08-30T00:35:59.571Z,8.13
2022-08-30T00:38:30.074Z,6.70
2022-08-30T00:41:00.498Z,6.88
2022-08-30T00:43:34.253Z,7.47
2022-08-30T00:46:08.760Z,7.45
2022-08-30T00:48:42.767Z,8.07
2022-08-30T00:51:17.730Z,7.75
2022-08-30T00:53:52.431Z,7.80
2022-08-30T00:56:22.768Z,9.23
2022-08-30T00:58:57.270Z,7.97
2022-08-30T01:01:28.372Z,8.48
2022-08-30T01:04:03.272Z,9.57
2022-08-30T01:06:37.208Z,8.77
2022-08-30T01:09:08.108Z,8.93
2022-08-30T01:11:42.369Z,9.55
2022-08-30T01:14:13.948Z,9.73
2022-08-30T01:16:47.082Z,9.20
2022-08-30T01:19:31.336Z,9.40
2022-08-30T01:22:08.685Z,10.00
2022-08-30T01:24:41.857Z,9.40
2022-08-30T01:27:12.641Z,8.35
2022-08-30T01:29:45.204Z,10.10
2022-08-30T01:32:21.240Z,9.63
2022-08-30T01:34:51.765Z,8.90
2022-08-30T01:37:24.997Z,8.48
2022-08-30T01:39:58.194Z,9.85
2022-08-30T01:42:28.960Z,9.55
2022-08-30T01:44:59.110Z,9.43
2022-08-30T01:47:29.677Z,9.70
2022-08-30T01:50:00.132Z,10.27
2022-08-30T01:52:31.253Z,9.93
2022-08-30T01:55:04.321Z,10.43
2022-08-30T01:57:34.490Z,10.10
2022-08-30T02:00:04.922Z,9.18
2022-08-30T02:02:44.435Z,10.18
2022-08-30T02:05:16.186Z,10.48
2022-08-30T02:07:46.755Z,10.55
2022-08-30T02:10:20.899Z,10.65
2022-08-30T02:12:52.742Z,10.52
2022-08-30T02:15:23.092Z,10.57
2022-08-30T02:17:54.139Z,9.75
2022-08-30T02:20:24.653Z,9.60
2022-08-30T02:22:56.728Z,11.45
2022-08-30T02:25:32.423Z,10.75
2022-08-30T02:28:02.598Z,11.00
2022-08-30T02:30:33.098Z,10.55
2022-08-30T02:33:04.330Z,10.60
2022-08-30T02:35:34.834Z,11.43
2022-08-30T02:38:05.046Z,11.13
2022-08-30T02:40:39.181Z,11.35
2022-08-30T02:43:09.539Z,11.18
2022-08-30T02:45:40.009Z,10.95
2022-08-30T02:48:10.214Z,11.18
2022-08-30T02:50:43.544Z,10.60
2022-08-30T02:53:16.397Z,10.75
2022-08-30T02:55:50.198Z,11.70
2022-08-30T02:58:20.588Z,11.75
2022-08-30T03:00:50.815Z,11.32
2022-08-30T03:03:22.881Z,11.55
2022-08-30T03:05:53.329Z,11.32
2022-08-30T03:08:23.517Z,11.85
2022-08-30T03:10:57.087Z,12.13
2022-08-30T03:13:27.811Z,12.55
2022-08-30T03:15:58.342Z,10.82
2022-08-30T03:18:29.736Z,11.18
2022-08-30T03:21:00.046Z,12.32
2022-08-30T03:23:30.348Z,11.73
2022-08-30T03:26:03.125Z,13.23
2022-08-30T03:28:36.482Z,13.38
2022-08-30T03:31:07.269Z,13.63
2022-08-30T03:33:37.897Z,13.05
2022-08-30T03:36:08.536Z,12.30
2022-08-30T03:38:39.015Z,12.57
2022-08-30T03:41:11.909Z,12.90
2022-08-30T03:43:43.371Z,13.02
2022-08-30T03:46:14.979Z,13.15
2022-08-30T03:48:45.672Z,14.90
2022-08-30T03:51:16.037Z,13.18
2022-08-30T03:53:46.235Z,13.05
2022-08-30T03:56:20.088Z,13.25
2022-08-30T03:58:50.498Z,13.70
2022-08-30T04:01:21.066Z,13.95
2022-08-30T04:03:51.258Z,14.50
2022-08-30T04:06:21.473Z,14.63
2022-08-30T04:08:51.801Z,13.60
2022-08-30T04:11:24.673Z,13.13
2022-08-30T04:13:56.355Z,14.68
2022-08-30T04:16:27.541Z,12.95
2022-08-30T04:19:00.322Z,13.60
2022-08-30T04:21:30.439Z,14.30
2022-08-30T04:24:00.781Z,14.13
2022-08-30T04:26:33.649Z,12.88
2022-08-30T04:29:03.806Z,13.43
2022-08-30T04:31:34.375Z,14.43
2022-08-30T04:34:04.912Z,15.80
2022-08-30T04:36:35.270Z,13.50
2022-08-30T04:39:05.460Z,14.75
2022-08-30T04:41:40.889Z,15.88
2022-08-30T04:44:14.127Z,14.73
2022-08-30T04:46:49.333Z,14.45
2022-08-30T04:49:19.460Z,14.65
2022-08-30T04:51:49.781Z,15.15
2022-08-30T04:54:20.039Z,14.88
2022-08-30T04:56:52.992Z,15.50
2022-08-30T04:59:23.170Z,14.88
2022-08-30T05:01:53.268Z,14.52
2022-08-30T05:04:23.602Z,14.15
2022-08-30T05:06:54.093Z,15.32
2022-08-30T05:09:24.608Z,15.45
2022-08-30T05:11:57.665Z,14.25
2022-08-30T05:14:27.786Z,14.55
2022-08-30T05:16:57.891Z,13.82
2022-08-30T05:19:28.059Z,15.02
2022-08-30T05:21:58.193Z,14.07
2022-08-30T05:24:29.441Z,14.93
2022-08-30T05:27:02.611Z,14.35
2022-08-30T05:29:34.111Z,13.75
2022-08-30T05:32:04.280Z,13.93
2022-08-30T05:34:34.874Z,14.32
2022-08-30T05:37:05.650Z,14.38
2022-08-30T05:39:51.324Z,13.80
2022-08-30T05:42:24.695Z,13.75
2022-08-30T05:44:55.614Z,16.42
2022-08-30T05:47:25.891Z,13.32
2022-08-30T05:49:56.061Z,12.93
2022-08-30T05:52:26.493Z,14.35
2022-08-30T05:54:59.323Z,13.52
2022-08-30T05:57:34.235Z,13.73
2022-08-30T06:00:09.151Z,13.40
2022-08-30T06:02:42.329Z,12.63
2022-08-30T06:05:14.710Z,13.40
2022-08-30T06:07:45.332Z,11.75
2022-08-30T06:10:15.542Z,12.50
2022-08-30T06:12:50.252Z,11.88
2022-08-30T06:15:20.858Z,12.45
2022-08-30T06:17:51.312Z,12.43
2022-08-30T06:20:21.656Z,12.60
2022-08-30T06:22:51.773Z,11.32
2022-08-30T06:25:22.331Z,11.73
2022-08-30T06:27:56.581Z,11.55
2022-08-30T06:30:27.115Z,11.77
2022-08-30T06:32:57.291Z,11.45
2022-08-30T06:35:28.772Z,11.40
2022-08-30T06:37:59.166Z,10.63
2022-08-30T06:40:29.719Z,10.20
2022-08-30T06:43:02.789Z,11.00
2022-08-30T06:45:37.333Z,10.35
2022-08-30T06:48:07.922Z,10.25
2022-08-30T06:50:38.099Z,10.45
2022-08-30T06:53:08.338Z,10.00
2022-08-30T06:55:39.830Z,10.65
2022-08-30T06:58:13.294Z,11.05
2022-08-30T07:00:43.768Z,10.40
2022-08-30T07:03:14.137Z,11.23
2022-08-30T07:05:44.517Z,9.93
2022-08-30T07:08:14.835Z,10.10
2022-08-30T07:10:45.531Z,10.60
2022-08-30T07:13:20.030Z,9.68
2022-08-30T07:15:51.705Z,9.70
2022-08-30T07:18:34.291Z,9.18
2022-08-30T07:21:11.343Z,9.60
2022-08-30T07:23:41.550Z,10.07
2022-08-30T07:26:13.848Z,9.73
2022-08-30T07:28:48.853Z,8.93
2022-08-30T07:31:26.385Z,9.25
2022-08-30T07:33:57.109Z,8.77
2022-08-30T07:36:27.516Z,9.32
2022-08-30T07:38:57.933Z,9.73
2022-08-30T07:41:30.461Z,9.00
2022-08-30T07:44:03.392Z,9.53
2022-08-30T07:46:33.849Z,9.05
2022-08-30T07:49:04.589Z,8.13
2022-08-30T07:51:35.574Z,7.65
2022-08-30T07:54:07.176Z,8.52
2022-08-30T07:56:37.981Z,8.45
2022-08-30T07:59:10.775Z,8.40
2022-08-30T08:01:41.094Z,7.93
2022-08-30T08:04:12.393Z,8.38
2022-08-30T08:06:45.501Z,7.82
2022-08-30T08:09:18.528Z,7.30
2022-08-30T08:11:48.927Z,8.73
2022-08-30T08:14:23.554Z,8.00
2022-08-30T08:16:53.961Z,6.97
2022-08-30T08:19:24.165Z,6.57
2022-08-30T08:22:15.641Z,7.95
2022-08-30T08:24:48.062Z,8.00
2022-08-30T08:27:18.732Z,7.10
2022-08-30T08:29:51.862Z,6.50
2022-08-30T08:32:22.310Z,6.47
2022-08-30T08:34:52.670Z,7.22
2022-08-30T08:37:27.882Z,5.95
2022-08-30T08:39:58.339Z,5.90
2022-08-30T08:42:40.023Z,6.43
2022-08-30T08:45:16.727Z,6.57
2022-08-30T08:48:04.740Z,6.32
2022-08-30T08:50:36.048Z,6.25
2022-08-30T08:53:51.726Z,6.20
2022-08-30T08:56:24.787Z,6.40
2022-08-30T08:58:57.631Z,5.95
2022-08-30T09:01:33.714Z,6.97
2022-08-30T09:04:09.827Z,6.10
2022-08-30T09:06:52.662Z,5.88
2022-08-30T09:09:30.375Z,6.20
2022-08-30T09:12:00.952Z,6.10
2022-08-30T09:14:36.370Z,4.75
2022-08-30T09:17:11.612Z,5.00
2022-08-30T09:19:45.746Z,5.40
2022-08-30T09:22:26.163Z,5.50
2022-08-30T09:25:02.800Z,5.57
2022-08-30T09:27:38.477Z,4.63
2022-08-30T09:30:14.839Z,4.88
2022-08-30T09:32:55.300Z,5.10
2022-08-30T09:35:28.309Z,5.45
2022-08-30T09:40:34.734Z,5.65
2022-08-30T09:43:13.478Z,4.97
2022-08-30T09:45:47.493Z,5.25
2022-08-30T09:48:45.090Z,5.95
2022-08-30T09:51:47.112Z,5.00
2022-08-30T09:54:25.504Z,5.40
2022-08-30T09:57:11.609Z,5.05
2022-08-30T09:59:50.634Z,5.22
2022-08-30T10:02:35.673Z,5.10
2022-08-30T10:05:16.378Z,5.28
2022-08-30T10:07:58.713Z,5.50
2022-08-30T10:10:35.798Z,5.07
2022-08-30T10:13:28.544Z,6.03
2022-08-30T10:16:05.323Z,5.07
2022-08-30T10:18:42.235Z,4.45
2022-08-30T10:21:25.656Z,4.57
2022-08-30T10:24:01.490Z,5.05
2022-08-30T10:26:34.775Z,5.18
2022-08-30T10:29:09.920Z,5.22
2022-08-30T10:31:45.738Z,4.97
2022-08-30T10:34:20.935Z,5.32
2022-08-30T10:36:59.979Z,4.82
2022-08-30T10:39:34.737Z,4.50
2022-08-30T10:42:10.399Z,4.22
2022-08-30T10:44:44.798Z,4.40
2022-08-30T10:47:27.523Z,4.88
2022-08-30T10:52:45.908Z,4.20
2022-08-30T10:55:18.970Z,4.30
2022-08-30T11:00:27.748Z,4.35
2022-08-30T11:03:31.473Z,3.70
2022-08-30T11:09:23.296Z,3.83
2022-08-30T11:12:22.672Z,4.50
2022-08-30T11:14:55.531Z,4.35
2022-08-30T11:17:34.018Z,4.40
2022-08-30T11:20:07.286Z,3.95
2022-08-30T11:22:40.136Z,4.53
2022-08-30T11:25:18.341Z,3.97
2022-08-30T11:27:53.971Z,4.28
2022-08-30T11:30:55.243Z,4.28
2022-08-30T11:33:46.215Z,4.22
2022-08-30T11:36:51.746Z,3.90
2022-08-30T11:39:51.565Z,3.85
2022-08-30T11:42:36.769Z,3.92
2022-08-30T11:45:37.067Z,3.97
2022-08-30T11:48:10.219Z,4.05
2022-08-30T11:50:55.393Z,3.95
2022-08-30T11:53:34.848Z,3.60
2022-08-30T11:56:13.419Z,4.20
2022-08-30T11:58:57.934Z,3.08
2022-08-30T12:01:49.892Z,3.50
2022-08-30T12:04:31.742Z,3.40
2022-08-30T12:07:05.089Z,3.60
2022-08-30T12:10:07.717Z,3.90
2022-08-30T12:12:55.797Z,3.08
2022-08-30T12:15:58.043Z,3.58
2022-08-30T12:18:44.448Z,3.25
2022-08-30T12:21:31.314Z,3.40
2022-08-30T12:24:21.623Z,3.38
2022-08-30T12:26:53.750Z,2.78
2022-08-30T12:29:27.616Z,3.25
2022-08-30T12:32:03.458Z,3.13
2022-08-30T12:34:40.528Z,3.30
2022-08-30T12:37:14.179Z,3.35
2022-08-30T12:39:53.762Z,2.88
2022-08-30T12:42:27.159Z,3.13
2022-08-30T12:45:00.772Z,3.13
2022-08-30T12:47:40.725Z,3.10
2022-08-30T12:50:15.168Z,3.00
2022-08-30T12:52:48.098Z,2.80
2022-08-30T12:55:21.320Z,3.05
2022-08-30T12:58:02.841Z,3.08
2022-08-30T13:00:35.935Z,3.10
2022-08-30T13:03:32.459Z,3.40
2022-08-30T13:06:02.962Z,3.25
2022-08-30T13:08:37.617Z,3.17
2022-08-30T13:11:11.700Z,2.80
2022-08-30T13:13:45.257Z,3.28
2022-08-30T13:16:29.450Z,3.55
2022-08-30T13:19:29.595Z,3.05
2022-08-30T13:22:01.786Z,3.60
2022-08-30T13:24:32.671Z,3.50
2022-08-30T13:27:11.535Z,3.10
2022-08-30T13:29:41.813Z,3.00
2022-08-30T13:32:13.924Z,3.53
2022-08-30T13:34:47.775Z,3.85
2022-08-30T13:40:14.768Z,3.30
2022-08-30T13:42:45.377Z,3.78
2022-08-30T13:48:10.934Z,2.97
2022-08-30T13:50:44.038Z,3.55
2022-08-30T13:53:14.636Z,3.75
2022-08-30T13:55:46.165Z,3.22
2022-08-30T13:58:19.836Z,4.00
2022-08-30T14:00:53.724Z,3.25
2022-08-30T14:03:24.230Z,3.47
2022-08-30T14:06:15.865Z,3.60
2022-08-30T14:08:47.663Z,2.83
2022-08-30T14:11:20.858Z,3.17
2022-08-30T14:16:44.752Z,2.83
2022-08-30T14:19:16.124Z,3.47
2022-08-30T14:21:49.877Z,3.72
2022-08-30T14:24:21.387Z,3.50
2022-08-30T14:26:53.340Z,3.33
2022-08-30T14:29:26.337Z,3.83
2022-08-30T14:32:00.547Z,3.63
2022-08-30T14:34:31.230Z,3.90
2022-08-30T14:37:07.053Z,3.27
2022-08-30T14:39:39.460Z,4.30
2022-08-30T14:42:11.918Z,4.03
2022-08-30T14:44:56.624Z,4.15
2022-08-30T14:47:29.750Z,3.40
2022-08-30T14:50:02.108Z,3.58
2022-08-30T14:52:35.727Z,3.50
2022-08-30T14:55:08.964Z,3.38
2022-08-30T14:57:39.686Z,3.83
2022-08-30T15:00:12.822Z,3.78
2022-08-30T15:02:42.975Z,3.28
2022-08-30T15:05:13.377Z,4.00
2022-08-30T15:07:47.512Z,3.20
2022-08-30T15:10:20.240Z,3.53
2022-08-30T15:12:50.910Z,3.72
2022-08-30T15:15:25.826Z,3.78
2022-08-30T15:17:55.993Z,3.93
2022-08-30T15:20:27.655Z,2.97
2022-08-30T15:23:00.494Z,3.10
2022-08-30T15:25:31.099Z,3.60
2022-08-30T15:28:01.308Z,3.38
2022-08-30T15:30:31.760Z,3.30
2022-08-30T15:33:02.302Z,3.70
2022-08-30T15:35:32.530Z,3.00
2022-08-30T15:38:06.069Z,3.20
2022-08-30T15:40:39.154Z,3.28
2022-08-30T15:43:09.443Z,2.97
2022-08-30T15:45:39.997Z,3.25
2022-08-30T15:48:10.440Z,3.88
2022-08-30T15:50:41.415Z,3.65
2022-08-30T15:53:14.911Z,3.75
2022-08-30T15:55:45.075Z,3.80
2022-08-30T15:58:15.494Z,3.03
2022-08-30T16:00:47.390Z,2.92
2022-08-30T16:03:17.834Z,3.60
2022-08-30T16:05:51.812Z,3.60
2022-08-30T16:10:56.417Z,2.92
2022-08-30T16:13:27.141Z,3.70
2022-08-30T16:15:57.949Z,3.78
2022-08-30T16:18:28.201Z,3.20
2022-08-30T16:21:05.723Z,3.67
2022-08-30T16:23:40.540Z,3.25
2022-08-30T16:26:17.272Z,3.60
2022-08-30T16:28:49.453Z,3.80
2022-08-30T16:31:21.211Z,3.65
2022-08-30T16:33:53.116Z,3.38
2022-08-30T16:36:26.562Z,3.92
2022-08-30T16:39:01.499Z,3.40
2022-08-30T16:41:32.756Z,4.57
2022-08-30T16:44:05.241Z,3.80
2022-08-30T16:46:36.204Z,3.50
2022-08-30T16:49:08.897Z,3.90
2022-08-30T16:51:40.170Z,3.88
2022-08-30T16:54:14.292Z,4.15
2022-08-30T16:56:45.725Z,4.75
2022-08-30T16:59:17.057Z,4.25
2022-08-30T17:01:48.172Z,4.55
2022-08-30T17:04:19.768Z,4.97
2022-08-30T17:06:52.284Z,3.83
2022-08-30T17:09:25.704Z,4.30
2022-08-30T17:11:56.426Z,3.95
2022-08-30T17:14:29.375Z,4.13
2022-08-30T17:17:00.888Z,5.03
2022-08-30T17:19:33.171Z,3.97
2022-08-30T17:22:05.153Z,4.10
2022-08-30T17:24:41.134Z,4.10
2022-08-30T17:27:11.807Z,4.38
2022-08-30T17:29:42.445Z,4.43
2022-08-30T17:32:12.909Z,4.75
2022-08-30T17:34:43.304Z,4.57
2022-08-30T17:37:13.819Z,4.25
2022-08-30T17:39:47.205Z,4.60
2022-08-30T17:42:18.051Z,4.18
2022-08-30T17:44:48.445Z,4.93
2022-08-30T17:47:19.023Z,5.63
2022-08-30T17:49:50.333Z,4.95
2022-08-30T17:52:20.876Z,4.55
2022-08-30T17:54:53.775Z,5.82
2022-08-30T17:57:24.201Z,5.22
2022-08-30T17:59:54.742Z,5.97
2022-08-30T18:02:29.874Z,5.03
2022-08-30T18:05:03.576Z,4.95
2022-08-30T18:07:34.344Z,4.40
2022-08-30T18:10:10.279Z,4.47
2022-08-30T18:12:41.028Z,4.78
2022-08-30T18:15:18.155Z,5.07
2022-08-30T18:17:49.437Z,4.60
2022-08-30T18:20:21.360Z,6.50
2022-08-30T18:22:56.740Z,5.88
2022-08-30T18:25:31.162Z,5.45
2022-08-30T18:28:01.874Z,5.85
2022-08-30T18:30:39.851Z,4.95
2022-08-30T18:33:11.609Z,5.18
2022-08-30T18:35:47.500Z,5.57
2022-08-30T18:38:19.464Z,8.05
2022-08-30T18:41:02.414Z,8.05
2022-08-30T18:43:33.398Z,7.50
2022-08-30T18:46:07.025Z,8.43
2022-08-30T18:48:40.510Z,8.07
2022-08-30T18:51:15.040Z,6.68
2022-08-30T18:53:46.805Z,5.65
2022-08-30T18:56:20.606Z,5.82
2022-08-30T18:58:53.191Z,5.18
2022-08-30T19:01:23.637Z,4.53
2022-08-30T19:03:54.419Z,4.63
2022-08-30T19:06:25.099Z,5.10
2022-08-30T19:08:55.917Z,4.47
2022-08-30T19:11:29.200Z,4.57
2022-08-30T19:13:59.922Z,4.50
2022-08-30T19:16:30.562Z,5.18
2022-08-30T19:19:01.365Z,5.28
2022-08-30T19:21:32.082Z,5.28
2022-08-30T19:24:04.144Z,4.20
2022-08-30T19:26:38.832Z,4.72
2022-08-30T19:29:09.761Z,4.05
2022-08-30T19:31:41.666Z,4.25
2022-08-30T19:34:12.176Z,4.70
2022-08-30T19:36:42.706Z,4.28
2022-08-30T19:39:15.463Z,4.55
2022-08-30T19:41:51.003Z,4.38
2022-08-30T19:44:21.801Z,4.55
2022-08-30T19:46:56.771Z,3.97
2022-08-30T19:49:27.454Z,3.67
2022-08-30T19:51:58.075Z,4.85
2022-08-30T19:54:28.829Z,4.43
2022-08-30T19:57:02.330Z,4.38
2022-08-30T19:59:32.741Z,4.30
2022-08-30T20:02:03.767Z,4.68
2022-08-30T20:04:34.636Z,4.18
2022-08-30T20:07:05.202Z,4.25
2022-08-30T20:09:37.910Z,4.60
2022-08-30T20:12:12.030Z,4.30
2022-08-30T20:14:42.735Z,4.28
2022-08-30T20:17:13.203Z,5.07
2022-08-30T20:19:43.744Z,4.32
2022-08-30T20:22:15.227Z,4.00
2022-08-30T20:24:45.926Z,4.53
2022-08-30T20:27:19.188Z,4.25
2022-08-30T20:32:20.245Z,4.57
2022-08-30T20:34:51.186Z,4.18
2022-08-30T20:37:23.345Z,4.55
2022-08-30T20:39:59.640Z,4.25
2022-08-30T20:42:33.018Z,4.18
2022-08-30T20:47:35.235Z,4.15
2022-08-30T20:50:10.935Z,3.95
2022-08-30T20:52:45.100Z,4.30
2022-08-30T20:55:17.977Z,3.55
2022-08-30T20:57:51.425Z,4.57
2022-08-30T21:00:23.200Z,4.85
2022-08-30T21:02:54.198Z,4.18
2022-08-30T21:05:24.628Z,4.28
2022-08-30T21:07:55.347Z,4.00
2022-08-30T21:10:26.344Z,4.35
2022-08-30T21:12:59.580Z,4.57
2022-08-30T21:15:38.408Z,4.95
2022-08-30T21:18:11.212Z,4.10
2022-08-30T21:20:41.937Z,4.72
2022-08-30T21:23:12.683Z,4.55
2022-08-30T21:25:44.050Z,4.40
2022-08-30T21:28:17.977Z,4.93
2022-08-30T21:30:49.534Z,4.15
2022-08-30T21:33:20.120Z,4.72
2022-08-30T21:36:02.792Z,4.47
2022-08-30T21:38:33.236Z,4.43
2022-08-30T21:41:04.068Z,4.63
2022-08-30T21:43:37.723Z,5.00
2022-08-30T21:46:09.723Z,4.00
2022-08-30T21:48:40.504Z,4.82
2022-08-30T21:51:12.438Z,4.50
2022-08-30T21:53:42.988Z,4.43
2022-08-30T21:56:21.304Z,4.18
2022-08-30T21:58:55.112Z,4.43
2022-08-30T22:04:00.393Z,4.88
2022-08-30T22:06:32.768Z,4.82
2022-08-30T22:09:05.026Z,5.13
2022-08-30T22:11:36.491Z,4.47
2022-08-30T22:14:10.320Z,4.78
2022-08-30T22:16:42.931Z,4.47
2022-08-30T22:19:13.456Z,5.13
2022-08-30T22:21:45.396Z,5.05
2022-08-30T22:24:16.617Z,4.80
2022-08-30T22:26:49.110Z,4.38
2022-08-30T22:29:23.460Z,4.18
2022-08-30T22:31:54.437Z,4.53
2022-08-30T22:34:25.159Z,5.18
2022-08-30T22:36:55.878Z,5.45
2022-08-30T22:39:26.289Z,4.85
2022-08-30T22:41:57.061Z,4.03
2022-08-30T22:44:30.485Z,4.40
2022-08-30T22:49:31.325Z,4.90
2022-08-30T22:52:01.845Z,4.32
2022-08-30T22:54:33.407Z,4.85
2022-08-30T22:57:04.519Z,5.07
2022-08-30T22:59:38.097Z,5.40
2022-08-30T23:04:39.945Z,4.90
2022-08-30T23:07:10.490Z,4.55
2022-08-30T23:09:41.017Z,5.72
2022-08-30T23:12:11.767Z,4.85
2022-08-30T23:14:45.056Z,5.15
2022-08-30T23:17:15.685Z,5.07
2022-08-30T23:19:46.092Z,4.63
2022-08-30T23:22:16.586Z,5.20
2022-08-30T23:24:59.090Z,4.78
2022-08-30T23:27:41.876Z,4.85
2022-08-30T23:30:28.511Z,4.93
2022-08-30T23:33:11.530Z,5.28
2022-08-30T23:35:54.603Z,4.95
2022-08-30T23:38:37.459Z,5.05
2022-08-30T23:41:20.192Z,4.83
2022-08-30T23:44:02.733Z,4.47
2022-08-30T23:46:48.116Z,4.38
2022-08-30T23:49:30.811Z,5.25
2022-08-30T23:52:13.600Z,5.90
2022-08-30T23:54:57.487Z,5.03
2022-08-30T23:57:41.613Z,5.75
